Time;durP1;ratioP1;P1;durP2;ratioP2;P2;SDS_P1;SDS_P2;PMS_P1;PMS_P2;Temp;Humidity;BMP_temperature;BMP_pressure;BME280_temperature;BME280_humidity;BME280_pressure;Samples;Min_cycle;Max_cycle;Signal;HPM_P1;HPM_P2
2021/03/13 00:01:11;;;;;;;6.97;0.80;;;6.10;99.90;;;;;;4967231;29;20031;-84
2021/03/13 00:03:38;;;;;;;4.07;0.60;;;6.20;99.90;;;;;;4951016;29;20078;-85
2021/03/13 00:06:04;;;;;;;6.78;0.90;;;6.10;99.90;;;;;;4967447;29;20183;-85
2021/03/13 00:08:30;;;;;;;7.70;0.65;;;6.10;99.90;;;;;;4967767;29;20220;-84
2021/03/13 00:10:56;;;;;;;5.75;0.50;;;6.10;99.90;;;;;;4966946;29;20066;-85
2021/03/13 00:13:22;;;;;;;11.65;0.60;;;6.10;99.90;;;;;;4966778;29;20045;-85
2021/03/13 00:15:48;;;;;;;3.80;0.40;;;6.20;99.90;;;;;;4952760;29;20034;-84
2021/03/13 00:18:14;;;;;;;5.72;0.40;;;6.20;99.90;;;;;;4950731;29;20035;-84
2021/03/13 00:20:41;;;;;;;6.43;0.40;;;6.20;99.90;;;;;;4949964;29;20125;-84
2021/03/13 00:23:07;;;;;;;9.65;0.30;;;6.20;99.90;;;;;;4934725;29;20047;-84
2021/03/13 00:25:34;;;;;;;5.82;0.40;;;6.20;99.90;;;;;;4950785;29;20035;-84
2021/03/13 00:28:01;;;;;;;8.95;0.95;;;6.20;99.90;;;;;;4934820;29;20090;-84
2021/03/13 00:30:35;;;;;;;11.18;0.80;;;6.10;99.90;;;;;;4950744;29;20406;-84
2021/03/13 00:33:08;;;;;;;5.55;0.50;;;6.00;99.90;;;;;;4950496;29;20027;-84
2021/03/13 00:35:34;;;;;;;12.20;2.10;;;6.10;99.90;;;;;;4967775;29;20031;-84
2021/03/13 00:38:01;;;;;;;3.97;0.70;;;6.10;99.90;;;;;;4950373;29;20046;-84
2021/03/13 00:40:29;;;;;;;6.45;0.50;;;6.10;99.90;;;;;;4950579;29;20035;-84
2021/03/13 00:42:56;;;;;;;7.68;0.38;;;6.10;99.90;;;;;;4950566;29;20110;-84
2021/03/13 00:45:25;;;;;;;7.07;0.40;;;6.20;99.90;;;;;;4950336;29;20031;-85
2021/03/13 00:47:51;;;;;;;5.65;0.50;;;6.00;99.90;;;;;;4934358;29;20554;-84
2021/03/13 00:50:19;;;;;;;6.75;0.30;;;6.10;99.90;;;;;;4956617;28;20398;-85
2021/03/13 00:52:46;;;;;;;3.28;0.47;;;6.10;99.90;;;;;;4969658;28;20056;-84
2021/03/13 00:55:13;;;;;;;9.15;0.47;;;6.10;99.90;;;;;;4969606;28;20035;-84
2021/03/13 00:57:42;;;;;;;5.22;0.40;;;6.10;99.90;;;;;;4953893;28;20534;-85
2021/03/13 01:00:11;;;;;;;7.70;0.50;;;6.10;99.90;;;;;;4953421;28;20035;-84
2021/03/13 01:02:37;;;;;;;9.00;0.30;;;6.10;99.90;;;;;;4985349;28;20073;-84
2021/03/13 01:05:06;;;;;;;6.50;0.40;;;6.20;99.90;;;;;;4969624;28;20027;-85
2021/03/13 01:07:35;;;;;;;6.65;0.55;;;6.20;99.90;;;;;;4985258;28;20069;-84
2021/03/13 01:10:13;;;;;;;6.68;0.40;;;6.20;99.90;;;;;;4969596;28;20034;-84
2021/03/13 01:12:41;;;;;;;8.57;0.50;;;6.20;99.90;;;;;;4969273;28;20519;-84
2021/03/13 01:15:11;;;;;;;5.85;0.60;;;6.30;99.90;;;;;;4969394;28;20046;-84
2021/03/13 01:17:37;;;;;;;6.35;0.50;;;6.40;99.90;;;;;;4949957;29;20028;-84
2021/03/13 01:20:06;;;;;;;12.00;0.57;;;6.30;99.90;;;;;;4950145;29;20031;-84
2021/03/13 01:22:32;;;;;;;10.23;0.50;;;6.30;99.90;;;;;;4950122;29;20499;-84
2021/03/13 01:24:58;;;;;;;6.25;0.40;;;6.30;99.90;;;;;;4949912;29;20115;-84
2021/03/13 01:27:24;;;;;;;5.35;0.40;;;6.30;99.90;;;;;;4950097;29;20338;-84
2021/03/13 01:29:49;;;;;;;8.77;0.45;;;6.30;99.90;;;;;;4949965;29;20064;-84
2021/03/13 01:32:15;;;;;;;7.22;0.50;;;6.30;99.90;;;;;;4966991;28;20068;-85
2021/03/13 01:34:41;;;;;;;12.20;0.60;;;6.20;99.90;;;;;;4953772;29;20042;-84
2021/03/13 01:37:12;;;;;;;;;;;6.20;99.90;;;;;;4970118;29;20082;-84
2021/03/13 01:39:40;;;;;;;10.50;0.70;;;6.20;99.90;;;;;;4969592;29;19925;-84
2021/03/13 01:42:11;;;;;;;10.85;0.70;;;6.10;99.90;;;;;;4954290;29;20031;-85
2021/03/13 01:44:37;;;;;;;6.03;0.60;;;6.10;99.90;;;;;;4953682;29;20031;-84
2021/03/13 01:47:03;;;;;;;10.85;1.48;;;6.10;99.90;;;;;;4969572;28;20042;-85
2021/03/13 01:49:32;;;;;;;10.13;0.73;;;6.00;99.90;;;;;;4953343;29;20094;-85
2021/03/13 01:51:59;;;;;;;9.68;1.10;;;6.00;99.90;;;;;;4969732;29;20027;-86
2021/03/13 01:54:25;;;;;;;7.80;0.60;;;6.00;99.90;;;;;;4953439;29;20399;-85
2021/03/13 01:56:51;;;;;;;7.72;0.85;;;6.00;99.90;;;;;;4969373;29;20039;-85
2021/03/13 01:59:20;;;;;;;6.82;0.90;;;6.00;99.90;;;;;;4937934;29;20039;-86
2021/03/13 02:01:48;;;;;;;4.50;0.50;;;6.00;99.90;;;;;;4937870;29;20027;-85
2021/03/13 02:04:17;;;;;;;6.67;1.60;;;6.00;99.90;;;;;;4969142;29;20043;-85
2021/03/13 02:07:00;;;;;;;13.32;0.77;;;6.00;99.90;;;;;;4989296;23;20042;-85
2021/03/13 02:09:42;;;;;;;7.90;1.05;;;6.00;99.90;;;;;;4995096;28;20034;-85
2021/03/13 02:12:20;;;;;;;5.85;0.68;;;6.00;99.90;;;;;;5011430;28;20127;-86
2021/03/13 02:14:58;;;;;;;4.70;0.80;;;6.00;99.90;;;;;;4995061;28;20037;-86
2021/03/13 02:17:42;;;;;;;4.80;0.60;;;5.90;99.90;;;;;;5027685;28;20280;-85
2021/03/13 02:20:40;;;;;;;4.82;0.60;;;6.00;99.90;;;;;;5011011;28;20036;-85
2021/03/13 02:23:11;;;;;;;5.63;0.60;;;5.90;99.90;;;;;;4995685;28;20046;-85
2021/03/13 02:26:23;;;;;;;3.58;0.40;;;5.90;99.90;;;;;;5013534;28;20125;-85
2021/03/13 02:29:15;;;;;;;3.92;0.40;;;5.90;99.90;;;;;;5027851;28;20038;-86
2021/03/13 02:31:48;;;;;;;2.55;0.60;;;5.90;99.90;;;;;;4995151;28;20050;-85
2021/03/13 02:34:20;;;;;;;4.63;0.50;;;5.90;99.90;;;;;;4994668;28;20026;-85
2021/03/13 02:36:51;;;;;;;4.95;0.70;;;5.90;99.90;;;;;;4995113;28;20386;-85
2021/03/13 02:39:22;;;;;;;5.10;0.80;;;5.90;99.90;;;;;;4994374;28;20030;-84
2021/03/13 02:42:00;;;;;;;3.03;0.70;;;5.90;99.90;;;;;;4995326;28;20037;-85
2021/03/13 02:44:27;;;;;;;3.78;0.50;;;5.90;99.90;;;;;;4993382;28;20089;-86
2021/03/13 02:47:00;;;;;;;5.18;1.50;;;5.90;99.90;;;;;;4995039;28;20084;-85
2021/03/13 02:49:35;;;;;;;3.88;0.50;;;5.90;99.90;;;;;;5025804;28;20038;-84
2021/03/13 02:52:11;;;;;;;6.38;0.80;;;5.90;99.90;;;;;;4995301;28;20022;-85
2021/03/13 02:54:43;;;;;;;3.87;0.70;;;5.90;99.90;;;;;;4994437;28;20030;-85
2021/03/13 02:57:22;;;;;;;6.25;0.73;;;5.90;99.90;;;;;;4994404;28;20029;-85
2021/03/13 02:59:49;;;;;;;4.22;0.70;;;5.90;99.90;;;;;;4993983;28;20037;-86
2021/03/13 03:02:19;;;;;;;6.13;1.25;;;5.90;99.90;;;;;;4994423;28;20048;-86
2021/03/13 03:04:49;;;;;;;3.20;0.77;;;5.90;99.90;;;;;;4994254;28;20044;-85
2021/03/13 03:07:17;;;;;;;4.60;1.00;;;5.90;99.90;;;;;;5000300;28;20049;-85
2021/03/13 03:09:44;;;;;;;2.72;0.77;;;5.90;99.90;;;;;;5029903;28;20041;-85
2021/03/13 03:12:11;;;;;;;5.22;1.13;;;5.90;99.90;;;;;;5049659;28;20052;-84
2021/03/13 03:14:42;;;;;;;3.50;0.82;;;5.90;99.90;;;;;;5034154;28;20124;-85
2021/03/13 03:17:09;;;;;;;2.28;0.52;;;5.90;99.90;;;;;;5033632;28;20052;-85
2021/03/13 03:19:41;;;;;;;6.75;0.98;;;5.90;99.90;;;;;;5015394;28;20053;-86
2021/03/13 03:22:11;;;;;;;4.10;0.73;;;5.90;99.90;;;;;;5029365;28;20122;-85
2021/03/13 03:24:42;;;;;;;5.43;1.55;;;6.00;99.90;;;;;;5013424;28;20034;-85
2021/03/13 03:27:08;;;;;;;6.93;0.60;;;5.90;99.90;;;;;;5013019;28;20028;-85
2021/03/13 03:29:39;;;;;;;6.25;0.88;;;6.00;99.90;;;;;;5013817;28;20025;-84
2021/03/13 03:32:07;;;;;;;2.08;0.80;;;6.00;99.90;;;;;;5013473;28;20025;-85
2021/03/13 03:34:34;;;;;;;3.97;0.80;;;6.10;99.90;;;;;;5029330;28;20052;-86
2021/03/13 03:37:04;;;;;;;2.95;0.95;;;6.10;99.90;;;;;;5012801;28;20034;-85
2021/03/13 03:39:30;;;;;;;3.40;0.73;;;6.10;99.90;;;;;;5029165;28;20025;-85
2021/03/13 03:41:59;;;;;;;6.25;1.02;;;6.10;99.90;;;;;;5013391;28;20025;-85
2021/03/13 03:44:28;;;;;;;7.32;1.02;;;6.00;99.90;;;;;;5012872;28;20038;-85
2021/03/13 03:47:05;;;;;;;4.32;1.23;;;6.00;99.90;;;;;;5014081;28;20021;-84
2021/03/13 03:49:38;;;;;;;7.10;1.27;;;6.10;99.90;;;;;;5029666;28;20061;-85
2021/03/13 03:52:14;;;;;;;4.40;0.63;;;6.10;99.90;;;;;;5033553;28;20051;-85
2021/03/13 03:54:41;;;;;;;5.05;1.13;;;6.10;99.90;;;;;;5032293;28;20029;-86
2021/03/13 03:57:09;;;;;;;4.30;1.00;;;6.10;99.90;;;;;;5032096;28;20362;-85
2021/03/13 03:59:36;;;;;;;5.55;0.90;;;6.10;99.90;;;;;;5048831;28;20036;-86
2021/03/13 04:02:02;;;;;;;5.75;0.85;;;6.10;99.90;;;;;;5048483;28;20040;-85
2021/03/13 04:04:29;;;;;;;2.80;0.63;;;6.10;99.90;;;;;;5032091;28;20041;-86
2021/03/13 04:06:57;;;;;;;2.78;1.15;;;6.20;99.90;;;;;;5048321;28;20025;-85
2021/03/13 04:09:26;;;;;;;6.53;1.23;;;6.20;99.90;;;;;;5031981;28;20048;-85
2021/03/13 04:11:53;;;;;;;2.47;1.05;;;6.20;99.90;;;;;;5032120;28;20029;-85
2021/03/13 04:14:19;;;;;;;5.38;1.02;;;6.20;99.90;;;;;;5032020;28;20036;-85
2021/03/13 04:16:45;;;;;;;5.18;0.85;;;6.20;99.90;;;;;;5018754;28;20029;-84
2021/03/13 04:19:11;;;;;;;5.25;0.90;;;6.20;99.90;;;;;;5028521;28;20040;-85
2021/03/13 04:21:38;;;;;;;7.40;1.60;;;6.20;99.90;;;;;;5012487;28;20124;-85
2021/03/13 04:24:05;;;;;;;5.55;1.30;;;6.20;99.90;;;;;;5011894;28;20041;-85
2021/03/13 04:26:33;;;;;;;5.70;0.82;;;6.30;99.90;;;;;;5012174;28;20049;-84
2021/03/13 04:28:59;;;;;;;6.97;1.23;;;6.20;99.90;;;;;;5011855;28;20030;-85
2021/03/13 04:31:30;;;;;;;5.57;1.13;;;6.20;99.90;;;;;;5011972;28;20074;-85
2021/03/13 04:33:57;;;;;;;3.28;0.80;;;6.30;99.90;;;;;;5045958;28;20040;-85
2021/03/13 04:36:25;;;;;;;3.58;1.20;;;6.30;99.90;;;;;;5028285;28;20048;-85
2021/03/13 04:38:53;;;;;;;4.22;0.90;;;6.30;99.90;;;;;;5028265;28;20026;-85
2021/03/13 04:41:19;;;;;;;8.30;1.40;;;6.30;99.90;;;;;;5011788;28;20053;-85
2021/03/13 04:43:46;;;;;;;5.40;0.90;;;6.40;99.90;;;;;;5028042;28;20052;-86
2021/03/13 04:46:11;;;;;;;4.93;1.27;;;6.30;99.90;;;;;;5011767;28;20030;-85
2021/03/13 04:48:37;;;;;;;5.03;0.98;;;6.40;99.90;;;;;;5028248;28;20040;-85
2021/03/13 04:51:05;;;;;;;4.63;0.90;;;6.40;99.90;;;;;;5024191;28;20025;-84
2021/03/13 04:53:31;;;;;;;6.00;0.90;;;6.40;99.90;;;;;;5031451;28;20056;-85
2021/03/13 04:55:57;;;;;;;5.05;0.90;;;6.40;99.90;;;;;;5047944;28;20055;-86
2021/03/13 04:58:23;;;;;;;6.57;0.82;;;6.40;99.90;;;;;;5031263;28;20029;-85
2021/03/13 05:00:51;;;;;;;8.45;1.20;;;6.50;99.90;;;;;;5031438;28;20029;-84
2021/03/13 05:03:16;;;;;;;5.85;0.70;;;6.50;99.90;;;;;;5031325;28;20432;-85
2021/03/13 05:06:02;;;;;;;3.47;0.57;;;6.50;99.90;;;;;;5031434;28;20029;-85
2021/03/13 05:08:28;;;;;;;5.20;0.70;;;6.50;99.90;;;;;;4986838;28;20162;-84
2021/03/13 05:10:54;;;;;;;6.70;0.80;;;6.50;99.90;;;;;;4972240;28;20043;-85
2021/03/13 05:13:19;;;;;;;5.45;0.77;;;6.50;99.90;;;;;;4972185;28;20131;-84
2021/03/13 05:15:45;;;;;;;5.35;0.60;;;6.50;99.90;;;;;;4983623;28;20035;-85
2021/03/13 05:18:11;;;;;;;5.95;0.70;;;6.50;99.90;;;;;;4968858;29;20047;-85
2021/03/13 05:20:36;;;;;;;7.45;0.70;;;6.50;99.90;;;;;;4968906;29;20138;-86
2021/03/13 05:23:02;;;;;;;2.40;0.68;;;6.50;99.90;;;;;;4952706;29;20057;-86
2021/03/13 05:25:28;;;;;;;3.15;0.45;;;6.50;99.90;;;;;;4968865;28;20036;-85
2021/03/13 05:27:53;;;;;;;2.88;0.75;;;6.60;99.90;;;;;;4968604;29;20035;-84
2021/03/13 05:30:19;;;;;;;3.80;0.60;;;6.60;99.90;;;;;;4968914;28;20060;-84
2021/03/13 05:32:45;;;;;;;3.90;0.60;;;6.50;99.90;;;;;;4952434;29;20067;-83
2021/03/13 05:35:12;;;;;;;6.32;0.90;;;6.60;99.90;;;;;;4968623;28;20074;-83
2021/03/13 05:37:39;;;;;;;6.25;0.70;;;6.70;99.90;;;;;;4968512;28;20033;-85
2021/03/13 05:40:06;;;;;;;7.43;0.60;;;6.70;99.90;;;;;;4952491;29;20050;-86
2021/03/13 05:42:34;;;;;;;4.43;0.50;;;6.70;99.90;;;;;;4968452;28;20078;-84
2021/03/13 05:45:00;;;;;;;4.05;0.60;;;6.70;99.90;;;;;;4988135;28;20041;-84
2021/03/13 05:47:26;;;;;;;7.13;0.55;;;6.60;99.90;;;;;;5014588;28;20075;-84
2021/03/13 05:50:04;;;;;;;1.30;0.40;;;6.60;99.90;;;;;;5014739;28;20034;-84
2021/03/13 05:52:32;;;;;;;5.15;0.50;;;6.60;99.90;;;;;;5014740;28;20033;-85
2021/03/13 05:54:58;;;;;;;2.70;0.40;;;6.70;99.90;;;;;;5015077;28;20414;-85
2021/03/13 05:57:24;;;;;;;1.25;0.40;;;6.70;99.90;;;;;;5014540;28;20029;-84
2021/03/13 05:59:51;;;;;;;5.20;0.50;;;6.60;99.90;;;;;;5014752;28;20029;-85
2021/03/13 06:02:23;;;;;;;4.57;0.93;;;6.70;99.90;;;;;;5031041;28;20037;-84
2021/03/13 06:04:52;;;;;;;8.13;1.13;;;6.70;99.90;;;;;;5030879;28;20093;-84
2021/03/13 06:07:26;;;;;;;4.85;0.95;;;6.80;99.90;;;;;;5030771;28;20158;-85
2021/03/13 06:09:53;;;;;;;6.05;1.23;;;6.80;99.90;;;;;;5045130;28;20048;-84
2021/03/13 06:12:20;;;;;;;5.90;1.10;;;6.80;99.90;;;;;;5031139;28;20496;-85
2021/03/13 06:14:47;;;;;;;8.20;1.77;;;6.80;99.90;;;;;;5030640;28;20032;-84
2021/03/13 06:17:13;;;;;;;4.30;1.10;;;6.90;99.90;;;;;;5023064;28;20529;-84
2021/03/13 06:19:52;;;;;;;6.75;0.82;;;6.90;99.90;;;;;;5007674;28;20057;-84
2021/03/13 06:22:36;;;;;;;4.38;1.42;;;6.90;99.90;;;;;;5034125;28;20100;-85
2021/03/13 06:25:10;;;;;;;4.22;0.40;;;6.90;99.90;;;;;;5033816;28;20127;-86
2021/03/13 06:27:36;;;;;;;4.38;0.52;;;6.90;99.90;;;;;;5068104;28;20040;-87
2021/03/13 06:30:06;;;;;;;4.57;0.60;;;6.90;99.90;;;;;;5033864;28;20044;-85
2021/03/13 06:32:33;;;;;;;4.55;0.70;;;6.90;99.90;;;;;;5050312;28;20040;-85
2021/03/13 06:35:23;;;;;;;4.45;0.50;;;6.90;99.90;;;;;;5033824;28;20033;-86
2021/03/13 06:37:51;;;;;;;2.80;0.40;;;6.90;99.90;;;;;;5033568;28;20071;-87
2021/03/13 06:40:32;;;;;;;5.05;0.40;;;7.10;99.90;;;;;;5033624;28;20047;-85
2021/03/13 06:42:59;;;;;;;3.13;0.30;;;6.90;99.90;;;;;;5052930;28;20068;-84
2021/03/13 06:45:25;;;;;;;4.22;0.20;;;6.90;99.90;;;;;;5015525;28;20485;-85
2021/03/13 06:47:51;;;;;;;0.30;0.10;;;6.80;99.90;;;;;;5046424;28;20040;-86
2021/03/13 06:50:26;;;;;;;1.30;0.10;;;6.60;99.90;;;;;;5012866;28;20033;-84
2021/03/13 06:52:54;;;;;;;1.10;0.10;;;6.70;99.90;;;;;;5013403;28;20064;-84
2021/03/13 06:55:24;;;;;;;1.02;0.10;;;6.60;99.90;;;;;;4984764;28;20061;-84
2021/03/13 06:57:52;;;;;;;1.00;0.10;;;6.50;99.90;;;;;;5011629;28;20029;-84
2021/03/13 07:00:37;;;;;;;1.48;0.10;;;6.50;99.90;;;;;;5011605;28;20057;-86
2021/03/13 07:03:23;;;;;;;1.55;0.10;;;6.70;99.90;;;;;;5011938;28;20076;-83
2021/03/13 07:06:15;;;;;;;1.88;0.10;;;6.70;99.90;;;;;;5043423;28;20033;-84
2021/03/13 07:08:43;;;;;;;1.77;0.10;;;6.70;99.90;;;;;;4927919;29;20051;-84
2021/03/13 07:11:13;;;;;;;1.10;0.00;;;6.80;99.90;;;;;;4945540;29;20040;-84
2021/03/13 07:13:43;;;;;;;0.90;0.10;;;6.80;99.90;;;;;;4945417;29;20048;-84
2021/03/13 07:16:31;;;;;;;1.17;0.10;;;6.60;99.90;;;;;;4931655;29;20124;-84
2021/03/13 07:19:07;;;;;;;2.67;0.10;;;6.70;99.90;;;;;;4928627;29;20028;-84
2021/03/13 07:21:35;;;;;;;3.00;0.10;;;6.70;99.90;;;;;;4961255;29;20032;-84
2021/03/13 07:24:05;;;;;;;2.55;0.10;;;6.80;99.90;;;;;;4946497;29;20125;-84
2021/03/13 07:26:47;;;;;;;2.53;0.30;;;6.90;99.90;;;;;;4946604;29;20092;-85
2021/03/13 07:29:15;;;;;;;4.65;0.20;;;6.80;99.90;;;;;;4927607;29;20042;-86
2021/03/13 07:31:45;;;;;;;4.15;0.15;;;7.00;99.90;;;;;;4929846;29;20547;-88
2021/03/13 07:34:20;;;;;;;3.35;0.20;;;6.90;99.90;;;;;;4914530;29;20042;-84
2021/03/13 07:36:52;;;;;;;5.13;0.30;;;7.00;99.90;;;;;;4930047;29;20036;-85
2021/03/13 07:39:21;;;;;;;2.55;0.20;;;6.90;99.90;;;;;;4962371;29;20047;-84
2021/03/13 07:42:00;;;;;;;6.57;0.20;;;6.80;99.90;;;;;;4962085;29;20059;-84
2021/03/13 07:44:27;;;;;;;5.68;0.20;;;6.80;99.90;;;;;;4961951;29;20047;-84
2021/03/13 07:46:53;;;;;;;6.43;0.30;;;6.90;99.90;;;;;;5024731;28;20041;-84
2021/03/13 07:49:22;;;;;;;3.35;0.30;;;6.90;99.90;;;;;;5008461;28;20061;-83
2021/03/13 07:51:48;;;;;;;3.55;0.30;;;7.00;99.90;;;;;;5007917;28;20055;-83
2021/03/13 07:54:14;;;;;;;9.48;0.57;;;7.00;99.90;;;;;;4997201;28;20042;-85
2021/03/13 07:56:42;;;;;;;8.30;0.40;;;6.90;99.90;;;;;;5008165;28;20030;-84
2021/03/13 07:59:12;;;;;;;4.63;0.20;;;7.00;99.90;;;;;;4992040;28;20088;-84
2021/03/13 08:01:49;;;;;;;11.63;0.70;;;7.10;99.90;;;;;;5008357;28;20105;-84
2021/03/13 08:04:37;;;;;;;6.28;0.30;;;7.10;99.90;;;;;;5008048;28;20056;-83
2021/03/13 08:07:04;;;;;;;10.07;0.40;;;7.00;99.90;;;;;;5024588;28;20087;-84
2021/03/13 08:09:30;;;;;;;6.53;0.40;;;7.20;99.90;;;;;;5023635;28;20061;-85
2021/03/13 08:11:56;;;;;;;7.95;0.40;;;7.30;99.90;;;;;;5007756;28;20606;-85
2021/03/13 08:14:33;;;;;;;9.02;0.52;;;7.40;99.90;;;;;;5007878;28;20034;-85
2021/03/13 08:17:09;;;;;;;7.45;0.22;;;7.60;99.90;;;;;;5007851;28;20033;-85
2021/03/13 08:19:38;;;;;;;7.88;0.60;;;7.60;99.90;;;;;;5024435;28;20478;-84
2021/03/13 08:22:21;;;;;;;5.30;0.20;;;7.70;99.90;;;;;;5008449;28;20026;-85
2021/03/13 08:24:48;;;;;;;9.15;0.40;;;7.50;99.90;;;;;;5057556;28;20116;-85
2021/03/13 08:27:38;;;;;;;6.13;0.40;;;7.40;99.90;;;;;;5040671;28;20097;-85
2021/03/13 08:30:28;;;;;;;;;;;7.30;99.90;;;;;;5057563;28;20026;-84
2021/03/13 08:33:04;;;;;;;8.85;0.47;;;7.30;99.90;;;;;;5019522;28;20372;-84
2021/03/13 08:35:43;;;;;;;10.10;0.88;;;7.40;99.90;;;;;;5040380;28;20038;-84
2021/03/13 08:38:10;;;;;;;7.55;0.50;;;7.60;99.90;;;;;;5037945;28;20026;-84
2021/03/13 08:40:44;;;;;;;10.80;0.50;;;7.90;99.90;;;;;;5007733;28;20470;-84
2021/03/13 08:43:34;;;;;;;11.45;0.55;;;7.90;99.90;;;;;;5024822;28;20041;-85
2021/03/13 08:46:00;;;;;;;8.00;0.68;;;7.90;99.90;;;;;;5000687;28;20431;-85
2021/03/13 08:48:54;;;;;;;7.47;0.40;;;7.90;99.90;;;;;;5007361;28;20038;-85
2021/03/13 08:51:20;;;;;;;6.88;0.30;;;7.80;99.90;;;;;;5007632;28;20034;-85
2021/03/13 08:53:46;;;;;;;6.47;0.30;;;7.80;99.90;;;;;;5007656;28;20053;-85
2021/03/13 08:56:41;;;;;;;7.93;0.45;;;7.80;99.90;;;;;;5007642;28;20097;-85
2021/03/13 08:59:16;;;;;;;5.70;0.40;;;7.90;99.90;;;;;;5007478;28;20033;-84
2021/03/13 09:02:00;;;;;;;7.53;0.40;;;7.80;99.90;;;;;;5007384;28;20039;-84
2021/03/13 09:04:27;;;;;;;9.68;0.40;;;7.70;99.90;;;;;;5024061;28;20042;-85
2021/03/13 09:06:53;;;;;;;7.47;0.50;;;7.80;99.90;;;;;;5007508;28;20037;-85
2021/03/13 09:09:19;;;;;;;7.07;0.40;;;7.80;99.90;;;;;;5022787;28;20053;-85
2021/03/13 09:11:54;;;;;;;7.55;0.30;;;8.20;99.90;;;;;;5027677;28;20097;-84
2021/03/13 09:14:20;;;;;;;9.25;0.50;;;8.30;99.90;;;;;;5031989;28;20025;-85
2021/03/13 09:16:47;;;;;;;10.45;0.50;;;8.00;99.90;;;;;;5018958;28;20079;-85
2021/03/13 09:19:14;;;;;;;8.50;0.50;;;7.90;99.90;;;;;;5012305;28;20033;-85
2021/03/13 09:21:55;;;;;;;8.32;0.75;;;7.70;99.90;;;;;;5010756;28;20064;-85
2021/03/13 09:24:29;;;;;;;10.18;0.95;;;7.80;99.90;;;;;;5010592;28;20063;-86
2021/03/13 09:27:00;;;;;;;5.70;0.40;;;7.90;99.90;;;;;;5010047;28;20064;-85
2021/03/13 09:29:27;;;;;;;9.93;0.60;;;8.20;99.90;;;;;;5009335;28;20036;-85
2021/03/13 09:32:03;;;;;;;14.63;0.90;;;8.20;99.90;;;;;;5010003;28;20033;-84
2021/03/13 09:34:30;;;;;;;9.55;0.90;;;8.20;99.90;;;;;;5026646;28;20044;-84
2021/03/13 09:36:56;;;;;;;20.95;0.90;;;8.30;99.90;;;;;;5026733;28;20034;-85
2021/03/13 09:39:27;;;;;;;10.27;0.68;;;8.20;99.90;;;;;;5027050;28;20029;-85
2021/03/13 09:42:19;;;;;;;11.50;0.65;;;8.10;99.90;;;;;;5010520;28;20033;-85
2021/03/13 09:44:58;;;;;;;9.43;0.93;;;8.10;99.90;;;;;;5020773;28;20049;-85
2021/03/13 09:47:28;;;;;;;13.38;0.70;;;8.20;99.90;;;;;;5023909;28;20036;-85
2021/03/13 09:49:56;;;;;;;7.97;0.90;;;8.10;99.90;;;;;;5013184;28;20036;-85
2021/03/13 09:52:31;;;;;;;11.93;1.23;;;8.10;99.90;;;;;;5026997;28;20045;-84
2021/03/13 09:55:09;;;;;;;10.50;0.43;;;7.80;99.90;;;;;;5046126;28;20021;-84
2021/03/13 09:57:40;;;;;;;4.97;0.47;;;7.80;99.90;;;;;;5011942;28;20035;-85
2021/03/13 10:00:11;;;;;;;10.52;0.50;;;7.80;99.90;;;;;;5029958;28;20033;-85
2021/03/13 10:02:39;;;;;;;8.85;0.82;;;7.70;99.90;;;;;;5030228;28;20025;-86
2021/03/13 10:05:06;;;;;;;7.95;0.45;;;7.70;99.90;;;;;;5047925;28;20064;-86
2021/03/13 10:07:37;;;;;;;9.68;0.70;;;7.70;99.90;;;;;;5012900;28;20032;-85
2021/03/13 10:10:05;;;;;;;10.88;0.80;;;7.70;99.90;;;;;;5023179;28;20033;-86
2021/03/13 10:12:36;;;;;;;11.90;0.60;;;8.00;99.90;;;;;;5030308;28;20037;-85
2021/03/13 10:15:15;;;;;;;7.75;0.40;;;8.50;99.90;;;;;;5013703;28;20033;-86
2021/03/13 10:17:56;;;;;;;6.70;0.65;;;8.80;99.90;;;;;;5003879;28;20090;-87
2021/03/13 10:20:25;;;;;;;5.82;0.50;;;9.00;99.90;;;;;;4991316;28;20045;-86
2021/03/13 10:22:51;;;;;;;9.52;0.98;;;9.00;99.90;;;;;;5041385;28;20048;-87
2021/03/13 10:25:17;;;;;;;8.18;0.90;;;8.60;99.90;;;;;;5018516;28;20033;-85
2021/03/13 10:27:43;;;;;;;13.23;0.60;;;8.10;99.90;;;;;;5013650;28;20029;-87
2021/03/13 10:30:11;;;;;;;10.98;0.82;;;7.80;99.90;;;;;;5016070;28;20035;-85
2021/03/13 10:32:38;;;;;;;6.68;0.80;;;7.50;99.90;;;;;;5046043;28;20029;-86
2021/03/13 10:35:28;;;;;;;6.97;0.40;;;7.10;99.90;;;;;;5032890;28;20393;-87
2021/03/13 10:38:24;;;;;;;6.30;0.40;;;6.80;99.90;;;;;;5032954;28;20077;-87
2021/03/13 10:40:52;;;;;;;3.13;0.40;;;6.10;99.90;;;;;;5032321;28;20037;-86
2021/03/13 10:43:21;;;;;;;8.68;0.63;;;6.10;99.90;;;;;;5032818;28;20061;-85
2021/03/13 10:45:56;;;;;;;7.60;0.50;;;6.70;99.90;;;;;;5032290;28;20036;-85
2021/03/13 10:48:23;;;;;;;9.73;0.60;;;7.10;99.90;;;;;;5032515;28;20036;-85
2021/03/13 10:50:49;;;;;;;13.80;0.80;;;7.70;99.90;;;;;;5030334;28;20033;-86
2021/03/13 10:53:38;;;;;;;12.90;1.73;;;8.30;99.90;;;;;;5024879;28;20121;-85
2021/03/13 10:56:05;;;;;;;20.85;1.45;;;8.60;99.90;;;;;;5013296;28;20033;-85
2021/03/13 10:58:44;;;;;;;10.57;0.70;;;8.40;99.90;;;;;;5012887;28;20033;-85
2021/03/13 11:01:11;;;;;;;17.15;1.40;;;8.70;99.90;;;;;;5012695;28;20045;-87
2021/03/13 11:03:36;;;;;;;11.48;1.42;;;9.30;99.90;;;;;;5012668;28;20049;-85
2021/03/13 11:06:02;;;;;;;15.23;1.73;;;9.70;99.90;;;;;;5012293;28;20041;-85
2021/03/13 11:08:28;;;;;;;12.10;0.88;;;9.50;99.90;;;;;;5025794;28;20052;-86
2021/03/13 11:10:55;;;;;;;11.38;1.13;;;9.20;99.90;;;;;;5009642;28;20026;-85
2021/03/13 11:13:22;;;;;;;18.98;1.33;;;9.30;99.90;;;;;;5008673;28;20026;-86
2021/03/13 11:15:48;;;;;;;18.95;2.10;;;9.20;99.90;;;;;;5008459;28;20407;-85
2021/03/13 11:18:14;;;;;;;10.68;0.77;;;9.30;99.90;;;;;;5008581;28;20061;-86
2021/03/13 11:20:41;;;;;;;12.95;1.23;;;9.20;99.90;;;;;;5025052;28;20036;-87
2021/03/13 11:23:07;;;;;;;13.10;0.88;;;9.50;99.90;;;;;;5008677;28;20048;-85
2021/03/13 11:25:33;;;;;;;15.05;1.00;;;9.70;99.90;;;;;;5026635;28;20025;-86
2021/03/13 11:27:59;;;;;;;13.35;1.08;;;9.60;99.90;;;;;;5024049;28;20033;-86
2021/03/13 11:30:25;;;;;;;8.38;0.93;;;9.40;99.90;;;;;;5008527;28;20030;-86
2021/03/13 11:32:51;;;;;;;12.93;1.10;;;9.30;99.90;;;;;;5008607;28;20026;-85
2021/03/13 11:35:20;;;;;;;8.93;0.70;;;9.00;99.90;;;;;;5008610;28;20057;-84
2021/03/13 11:37:47;;;;;;;19.75;1.45;;;8.70;99.90;;;;;;5025088;28;20037;-86
2021/03/13 11:40:14;;;;;;;10.65;0.77;;;8.40;99.90;;;;;;5005109;28;20034;-85
2021/03/13 11:42:40;;;;;;;14.43;0.75;;;8.30;99.90;;;;;;5021710;28;20037;-85
2021/03/13 11:45:08;;;;;;;7.10;0.45;;;8.20;99.90;;;;;;5037980;28;20106;-86
2021/03/13 11:47:34;;;;;;;7.00;0.40;;;7.30;99.90;;;;;;5021539;28;20414;-85
2021/03/13 11:50:00;;;;;;;6.72;0.40;;;5.50;99.90;;;;;;5024711;28;20116;-85
2021/03/13 11:52:26;;;;;;;6.63;0.40;;;5.80;99.90;;;;;;5040171;28;20389;-86
2021/03/13 11:54:52;;;;;;;9.30;0.40;;;6.20;99.90;;;;;;5044760;28;20104;-85
2021/03/13 11:57:20;;;;;;;7.15;0.30;;;6.40;99.90;;;;;;5044527;28;20438;-84
2021/03/13 11:59:47;;;;;;;7.45;0.40;;;6.60;99.90;;;;;;5011198;28;20064;-83
2021/03/13 12:02:13;;;;;;;5.03;0.65;;;6.80;99.90;;;;;;5027969;28;20060;-84
2021/03/13 12:04:40;;;;;;;4.65;0.30;;;6.90;99.90;;;;;;5011461;28;20033;-84
2021/03/13 12:07:06;;;;;;;3.90;0.20;;;7.10;99.90;;;;;;5044394;28;20034;-84
2021/03/13 12:09:33;;;;;;;6.60;0.30;;;7.30;99.90;;;;;;5027767;28;20096;-86
2021/03/13 12:12:00;;;;;;;7.70;0.40;;;7.60;99.90;;;;;;5028076;28;20096;-85
2021/03/13 12:14:27;;;;;;;7.82;0.70;;;7.80;99.90;;;;;;5044024;28;20124;-84
2021/03/13 12:16:53;;;;;;;7.78;0.55;;;8.00;99.90;;;;;;4996358;28;20034;-85
2021/03/13 12:19:19;;;;;;;6.78;0.60;;;8.10;99.90;;;;;;5002362;28;20027;-86
2021/03/13 12:21:45;;;;;;;7.82;0.45;;;8.30;99.90;;;;;;5002638;28;20053;-85
2021/03/13 12:24:14;;;;;;;8.13;0.50;;;8.60;99.90;;;;;;4991097;28;20121;-85
2021/03/13 12:26:40;;;;;;;10.30;0.57;;;8.90;99.90;;;;;;5016201;28;20536;-85
2021/03/13 12:29:05;;;;;;;11.55;0.80;;;9.00;99.90;;;;;;5027520;28;20051;-84
2021/03/13 12:31:31;;;;;;;10.07;0.40;;;8.90;99.90;;;;;;5022034;28;20030;-85
2021/03/13 12:33:57;;;;;;;8.13;0.30;;;8.50;99.90;;;;;;4985687;28;20039;-86
2021/03/13 12:36:23;;;;;;;7.05;0.50;;;8.30;99.90;;;;;;5004378;28;20045;-85
2021/03/13 12:38:49;;;;;;;6.53;0.68;;;8.70;99.90;;;;;;5021302;28;20061;-86
2021/03/13 12:41:14;;;;;;;8.48;0.38;;;9.40;99.90;;;;;;5001282;28;20030;-86
2021/03/13 12:43:40;;;;;;;7.38;0.35;;;9.30;99.90;;;;;;4991631;28;20049;-85
2021/03/13 12:46:06;;;;;;;6.18;0.30;;;9.10;99.90;;;;;;4991873;28;20037;-85
2021/03/13 12:48:32;;;;;;;10.18;0.80;;;8.80;99.90;;;;;;4990973;28;20053;-84
2021/03/13 12:50:58;;;;;;;5.60;0.32;;;8.80;99.90;;;;;;4994392;28;20056;-85
2021/03/13 12:53:24;;;;;;;13.00;0.40;;;8.80;99.90;;;;;;5044069;28;20029;-85
2021/03/13 12:55:49;;;;;;;9.88;0.40;;;8.80;99.90;;;;;;5043796;28;20084;-86
2021/03/13 12:58:15;;;;;;;11.85;0.40;;;8.80;99.90;;;;;;5011162;28;20037;-86
2021/03/13 13:00:41;;;;;;;6.97;0.40;;;8.90;99.90;;;;;;5044027;28;20117;-86
2021/03/13 13:03:10;;;;;;;7.43;0.40;;;9.20;99.90;;;;;;5060762;28;20067;-86
2021/03/13 13:08:42;;;;;;;6.63;0.68;;;9.80;99.90;;;;;;4974275;28;20082;-87
2021/03/13 13:11:08;;;;;;;8.30;0.40;;;9.60;99.90;;;;;;4951553;28;20075;-86
2021/03/13 13:13:33;;;;;;;3.45;0.25;;;9.40;99.90;;;;;;4967933;28;20046;-86